createdAt,value
2022-08-26T05:04:21.585Z,24.4
2022-08-26T05:05:24.577Z,24.4
2022-08-26T05:06:37.608Z,24.4
2022-08-26T05:07:40.352Z,24.4
2022-08-26T05:08:53.104Z,24.4
2022-08-26T05:10:05.226Z,24.39
2022-08-26T05:11:12.131Z,24.37
2022-08-26T05:12:24.284Z,24.36
2022-08-26T05:13:37.148Z,24.39
2022-08-26T05:15:18.755Z,24.44
2022-08-26T05:15:52.143Z,24.14
2022-08-26T05:17:04.743Z,24.39
2022-08-26T05:18:17.613Z,24.53
2022-08-26T05:19:32.702Z,24.68
2022-08-26T05:20:36.150Z,24.78
2022-08-26T05:21:38.288Z,24.88
2022-08-26T05:22:51.596Z,24.98
2022-08-26T05:24:03.484Z,25.12
2022-08-26T05:25:16.116Z,25.09
2022-08-26T05:26:28.782Z,25.21
2022-08-26T05:27:31.656Z,25.28
2022-08-26T05:28:34.994Z,25.35
2022-08-26T05:29:48.124Z,25.42
2022-08-26T05:30:56.708Z,25.42
2022-08-26T05:32:09.624Z,25.51
2022-08-26T05:33:23.366Z,25.53
2022-08-26T05:34:30.075Z,25.6
2022-08-26T05:35:42.373Z,25.63
2022-08-26T05:36:45.110Z,25.67
2022-08-26T05:37:57.365Z,25.7
2022-08-26T05:39:10.602Z,25.74
2022-08-26T05:40:12.957Z,25.77
2022-08-26T05:41:25.640Z,25.8
2022-08-26T05:42:38.246Z,25.83
2022-08-26T05:43:51.141Z,25.83
2022-08-26T05:44:53.862Z,25.84
2022-08-26T05:46:08.633Z,25.86
2022-08-26T05:47:10.778Z,25.87
2022-08-26T05:48:24.253Z,25.9
2022-08-26T05:49:36.477Z,25.9
2022-08-26T05:50:48.122Z,25.91
2022-08-26T05:51:50.185Z,25.89
2022-08-26T05:53:03.630Z,25.82
2022-08-26T05:54:22.063Z,25.76
2022-08-26T05:55:25.632Z,25.79
2022-08-26T05:56:27.966Z,25.8
2022-08-26T05:57:42.875Z,25.8
2022-08-26T05:58:54.986Z,25.8
2022-08-26T05:59:57.647Z,25.8
2022-08-26T06:01:09.549Z,25.77
2022-08-26T06:02:41.715Z,25.76
2022-08-26T06:03:34.061Z,25.76
2022-08-26T06:04:36.149Z,25.74
2022-08-26T06:05:49.110Z,25.79
2022-08-26T06:07:01.191Z,25.79
2022-08-26T06:08:04.153Z,25.82
2022-08-26T06:09:17.459Z,25.82
2022-08-26T06:10:32.471Z,25.84
2022-08-26T06:11:35.135Z,25.56
2022-08-26T06:12:47.666Z,25.67
2022-08-26T06:14:03.562Z,25.66
2022-08-26T06:15:06.676Z,25.63
2022-08-26T06:16:18.616Z,25.65
2022-08-26T06:17:21.652Z,25.65
2022-08-26T06:18:35.569Z,25.67
2022-08-26T06:19:48.133Z,25.67
2022-08-26T06:20:57.127Z,25.69
2022-08-26T06:22:01.152Z,25.7
2022-08-26T06:23:13.001Z,25.69
2022-08-26T06:24:27.044Z,25.66
2022-08-26T06:25:29.464Z,25.6
2022-08-26T06:26:42.920Z,25.6
2022-08-26T06:28:08.256Z,25.52
2022-08-26T06:29:02.162Z,25.46
2022-08-26T06:30:26.048Z,25.43
2022-08-26T06:31:19.754Z,25.43
2022-08-26T06:32:31.962Z,25.46
2022-08-26T06:33:37.653Z,25.49
2022-08-26T06:34:51.072Z,25.42
2022-08-26T06:36:04.086Z,25.46
2022-08-26T06:37:07.993Z,25.42
2022-08-26T06:38:20.898Z,25.45
2022-08-26T06:39:43.984Z,25.45
2022-08-26T06:40:38.167Z,25.48
2022-08-26T06:41:50.587Z,25.45
2022-08-26T06:43:04.671Z,25.49
2022-08-26T06:44:06.855Z,25.52
2022-08-26T06:45:19.637Z,25.53
2022-08-26T06:46:32.073Z,25.55
2022-08-26T06:47:35.156Z,25.53
2022-08-26T06:48:47.412Z,25.53
2022-08-26T06:50:00.143Z,25.53
2022-08-26T06:51:02.149Z,25.55
2022-08-26T06:52:14.653Z,25.58
2022-08-26T06:53:22.079Z,25.53
2022-08-26T06:54:34.641Z,25.55
2022-08-26T06:55:46.556Z,24.44
2022-08-26T06:56:59.147Z,24.27
2022-08-26T06:58:01.296Z,24.22
2022-08-26T06:59:17.155Z,24.37
2022-08-26T07:00:20.267Z,24.51
2022-08-26T07:01:43.760Z,24.22
2022-08-26T07:02:47.133Z,24.41
2022-08-26T07:03:50.675Z,24.57
2022-08-26T07:05:02.978Z,24.64
2022-08-26T07:06:15.662Z,24.72
2022-08-26T07:07:18.779Z,24.78
2022-08-26T07:08:35.174Z,24.84
2022-08-26T07:09:47.145Z,24.84
2022-08-26T07:10:52.670Z,24.95
2022-08-26T07:11:58.045Z,25.01
2022-08-26T07:13:10.680Z,25.02
2022-08-26T07:14:22.638Z,25.0
2022-08-26T07:15:35.739Z,24.94
2022-08-26T07:16:38.062Z,25.01
2022-08-26T07:17:50.675Z,25.05
2022-08-26T07:19:03.436Z,25.12
2022-08-26T07:20:13.679Z,25.14
2022-08-26T07:21:15.786Z,25.15
2022-08-26T07:22:28.769Z,25.19
2022-08-26T07:23:40.655Z,24.91
2022-08-26T07:24:53.680Z,25.02
2022-08-26T07:25:55.830Z,24.37
2022-08-26T07:27:08.908Z,24.67
2022-08-26T07:28:20.973Z,24.68
2022-08-26T07:29:24.434Z,24.74
2022-08-26T07:30:37.834Z,24.83
2022-08-26T07:31:51.191Z,24.88
2022-08-26T07:32:53.347Z,24.92
2022-08-26T07:34:06.200Z,25.0
2022-08-26T07:35:18.369Z,24.95
2022-08-26T07:36:22.200Z,25.04
2022-08-26T07:37:35.436Z,25.02
2022-08-26T07:38:48.188Z,24.65
2022-08-26T07:39:50.740Z,24.51
2022-08-26T07:41:03.694Z,24.54
2022-08-26T07:42:15.697Z,24.36
2022-08-26T07:43:21.193Z,24.44
2022-08-26T07:44:36.126Z,24.37
2022-08-26T07:45:48.713Z,24.5
2022-08-26T07:46:53.311Z,24.56
2022-08-26T07:48:06.214Z,24.46
2022-08-26T07:49:09.087Z,24.56
2022-08-26T07:50:21.694Z,24.57
2022-08-26T07:51:32.146Z,24.71
2022-08-26T07:52:44.093Z,24.77
2022-08-26T07:53:48.222Z,24.85
2022-08-26T07:55:04.889Z,24.87
2022-08-26T07:56:07.676Z,24.91
2022-08-26T07:57:20.885Z,24.88
2022-08-26T07:58:33.715Z,24.97
2022-08-26T07:59:36.120Z,25.02
2022-08-26T08:00:48.666Z,25.07
2022-08-26T08:02:00.831Z,24.64
2022-08-26T08:03:23.706Z,24.02
2022-08-26T08:04:16.013Z,24.41
2022-08-26T08:05:33.486Z,24.56
2022-08-26T08:06:36.444Z,24.65
2022-08-26T08:07:49.221Z,24.7
2022-08-26T08:08:55.825Z,24.61
2022-08-26T08:10:11.659Z,24.57
2022-08-26T08:11:14.010Z,24.65
2022-08-26T08:12:26.705Z,24.75
2022-08-26T08:13:39.129Z,24.74
2022-08-26T08:14:51.689Z,24.72
2022-08-26T08:15:53.789Z,24.81
2022-08-26T08:17:06.837Z,24.41
2022-08-26T08:18:20.488Z,24.61
2022-08-26T08:19:23.820Z,24.57
2022-08-26T08:20:36.040Z,24.74
2022-08-26T08:21:49.727Z,24.26
2022-08-26T08:22:53.455Z,24.57
2022-08-26T08:24:06.684Z,24.17
2022-08-26T08:25:18.751Z,24.44
2022-08-26T08:26:22.275Z,24.46
2022-08-26T08:27:34.251Z,24.51
2022-08-26T08:28:48.024Z,24.27
2022-08-26T08:29:50.309Z,24.5
2022-08-26T08:31:03.459Z,24.5
2022-08-26T08:32:15.588Z,24.56
2022-08-26T08:33:29.218Z,24.56
2022-08-26T08:34:31.444Z,24.65
2022-08-26T08:35:44.214Z,24.43
2022-08-26T08:36:56.372Z,24.3
2022-08-26T08:37:59.795Z,24.43
2022-08-26T08:39:11.884Z,24.5
2022-08-26T08:40:25.279Z,24.56
2022-08-26T08:41:27.466Z,24.61
2022-08-26T08:42:40.279Z,24.61
2022-08-26T08:43:52.459Z,24.7
2022-08-26T08:45:05.221Z,24.72
2022-08-26T08:46:07.438Z,24.7
2022-08-26T08:47:20.188Z,24.72
2022-08-26T08:48:32.892Z,24.84
2022-08-26T08:49:45.673Z,24.9
2022-08-26T08:50:47.972Z,24.75
2022-08-26T08:52:00.707Z,24.91
2022-08-26T08:53:12.706Z,24.75
2022-08-26T08:54:17.224Z,24.85
2022-08-26T08:55:33.951Z,24.88
2022-08-26T08:56:38.692Z,24.74
2022-08-26T08:57:53.676Z,24.85
2022-08-26T08:58:57.020Z,24.88
2022-08-26T09:00:09.100Z,24.9
2022-08-26T09:01:22.262Z,24.88
2022-08-26T09:02:24.540Z,24.74
2022-08-26T09:03:37.716Z,24.46
2022-08-26T09:04:50.960Z,24.32
2022-08-26T09:05:55.259Z,23.71
2022-08-26T09:07:07.357Z,24.14
2022-08-26T09:08:21.193Z,24.27
2022-08-26T09:09:23.621Z,24.43
2022-08-26T09:10:36.705Z,24.09
2022-08-26T09:11:48.687Z,23.75
2022-08-26T09:12:52.220Z,23.86
2022-08-26T09:14:05.280Z,23.89
2022-08-26T09:15:18.218Z,24.09
2022-08-26T09:16:21.156Z,24.26
2022-08-26T09:17:34.227Z,24.25
2022-08-26T09:18:46.787Z,24.02
2022-08-26T09:19:59.718Z,23.72
2022-08-26T09:21:01.927Z,23.0
2022-08-26T09:22:14.739Z,23.3
2022-08-26T09:23:26.980Z,23.55
2022-08-26T09:24:41.772Z,23.78
2022-08-26T09:25:44.533Z,22.93
2022-08-26T09:26:57.728Z,22.94
2022-08-26T09:28:00.922Z,23.3
2022-08-26T09:29:16.835Z,23.56
2022-08-26T09:30:19.433Z,23.79
2022-08-26T09:31:32.248Z,23.98
2022-08-26T09:32:44.334Z,24.1
2022-08-26T09:33:51.226Z,24.32
2022-08-26T09:35:04.362Z,24.39
2022-08-26T09:36:09.218Z,24.5
2022-08-26T09:37:22.168Z,24.58
2022-08-26T09:38:34.748Z,24.64
2022-08-26T09:39:47.052Z,24.74
2022-08-26T09:40:50.224Z,24.81
2022-08-26T09:42:01.455Z,24.88
2022-08-26T09:43:15.713Z,24.95
2022-08-26T09:44:17.813Z,25.02
2022-08-26T09:45:31.232Z,25.08
2022-08-26T09:46:43.222Z,25.14
2022-08-26T09:47:56.241Z,25.18
2022-08-26T09:48:58.375Z,25.23
2022-08-26T09:50:12.424Z,25.26
2022-08-26T09:51:24.758Z,25.29
2022-08-26T09:52:27.718Z,25.35
2022-08-26T09:53:39.679Z,25.39
2022-08-26T09:54:54.716Z,25.43
2022-08-26T09:55:57.443Z,25.46
2022-08-26T09:57:10.228Z,25.48
2022-08-26T09:58:22.889Z,25.53
2022-08-26T09:59:26.230Z,25.53
2022-08-26T10:00:42.306Z,25.56
2022-08-26T10:01:45.418Z,25.58
2022-08-26T10:02:58.065Z,25.6
2022-08-26T10:04:11.303Z,25.62
2022-08-26T10:05:13.568Z,25.66
2022-08-26T10:06:26.452Z,25.69
2022-08-26T10:07:39.531Z,25.72
2022-08-26T10:08:42.232Z,25.73
2022-08-26T10:09:59.563Z,25.74
2022-08-26T10:11:03.240Z,25.77
2022-08-26T10:12:15.333Z,25.79
2022-08-26T10:13:29.576Z,25.79
2022-08-26T10:14:31.776Z,25.82
2022-08-26T10:15:50.000Z,25.82
2022-08-26T10:16:52.994Z,25.83
2022-08-26T10:18:05.756Z,25.83
2022-08-26T10:19:17.828Z,25.86
2022-08-26T10:20:23.387Z,25.86
2022-08-26T10:21:35.863Z,25.87
2022-08-26T10:22:48.727Z,25.86
2022-08-26T10:23:52.279Z,25.91
2022-08-26T10:25:06.253Z,25.91
2022-08-26T10:26:08.369Z,25.91
2022-08-26T10:27:22.253Z,25.97
2022-08-26T10:28:34.145Z,25.95
2022-08-26T10:29:46.754Z,25.98
2022-08-26T10:30:49.756Z,25.98
2022-08-26T10:32:03.735Z,26.0
2022-08-26T10:33:18.139Z,26.0
2022-08-26T10:34:21.368Z,26.01
2022-08-26T10:35:35.104Z,26.03
2022-08-26T10:36:52.338Z,26.03
2022-08-26T10:37:53.353Z,26.04
2022-08-26T10:38:55.451Z,26.07
2022-08-26T10:40:08.286Z,26.07
2022-08-26T10:41:21.943Z,26.1
2022-08-26T10:42:34.746Z,26.13
2022-08-26T10:43:36.832Z,26.09
2022-08-26T10:44:53.729Z,26.11
2022-08-26T10:46:00.908Z,26.13
2022-08-26T10:47:13.745Z,26.13
2022-08-26T10:48:15.799Z,26.16
2022-08-26T10:49:28.230Z,26.14
2022-08-26T10:50:40.539Z,26.14
2022-08-26T10:51:45.746Z,26.16
2022-08-26T10:52:57.750Z,26.13
2022-08-26T10:54:10.270Z,26.13
2022-08-26T10:55:14.045Z,26.16
2022-08-26T10:56:27.228Z,26.14
2022-08-26T10:57:39.769Z,26.18
2022-08-26T10:58:52.250Z,26.17
2022-08-26T10:59:54.255Z,26.2
2022-08-26T11:01:10.524Z,26.2
2022-08-26T11:02:12.792Z,26.2
2022-08-26T11:03:25.267Z,26.21
2022-08-26T11:04:37.426Z,26.2
2022-08-26T11:05:50.712Z,26.24
2022-08-26T11:06:52.684Z,26.21
2022-08-26T11:08:05.336Z,26.24
2022-08-26T11:09:17.289Z,26.25
2022-08-26T11:10:30.219Z,26.27
2022-08-26T11:11:32.960Z,26.25
2022-08-26T11:12:49.428Z,26.27
2022-08-26T11:13:51.737Z,26.27
2022-08-26T11:15:05.384Z,26.3
2022-08-26T11:16:17.354Z,26.31
2022-08-26T11:17:20.246Z,26.28
2022-08-26T11:18:33.192Z,26.3
2022-08-26T11:20:00.348Z,26.33
2022-08-26T11:20:53.614Z,26.31
2022-08-26T11:22:06.236Z,26.31
2022-08-26T11:23:08.275Z,26.28
2022-08-26T11:24:20.724Z,26.31
2022-08-26T11:25:32.601Z,26.34
2022-08-26T11:26:55.374Z,26.31
2022-08-26T11:27:48.725Z,26.33
2022-08-26T11:29:01.755Z,26.34
2022-08-26T11:30:15.146Z,26.31
2022-08-26T11:31:21.306Z,26.31
2022-08-26T11:32:33.363Z,26.35
2022-08-26T11:33:45.747Z,26.33
2022-08-26T11:34:47.782Z,26.3
2022-08-26T11:36:00.737Z,26.33
2022-08-26T11:37:14.353Z,26.33
2022-08-26T11:38:17.256Z,26.31
2022-08-26T11:39:30.277Z,26.31
2022-08-26T11:40:42.793Z,26.31
2022-08-26T11:41:54.768Z,26.33
2022-08-26T11:42:57.788Z,26.33
2022-08-26T11:44:11.669Z,26.3
2022-08-26T11:45:24.814Z,26.31
2022-08-26T11:46:26.940Z,26.33
2022-08-26T11:47:39.761Z,26.34
2022-08-26T11:48:51.782Z,26.31
2022-08-26T11:49:54.745Z,26.33
2022-08-26T11:51:07.024Z,26.31
2022-08-26T11:52:21.289Z,26.33
2022-08-26T11:53:23.316Z,26.28
2022-08-26T11:54:38.749Z,26.34
2022-08-26T11:55:52.189Z,26.31
2022-08-26T11:56:56.279Z,26.31
2022-08-26T11:58:08.400Z,26.34
2022-08-26T11:59:21.617Z,26.35
2022-08-26T12:00:23.840Z,26.33
2022-08-26T12:01:36.255Z,26.34
2022-08-26T12:02:48.129Z,26.35
2022-08-26T12:04:01.099Z,26.35
2022-08-26T12:05:03.154Z,26.35
2022-08-26T12:06:15.801Z,26.37
2022-08-26T12:07:27.582Z,26.37
2022-08-26T12:08:31.785Z,26.37
2022-08-26T12:09:43.699Z,26.4
2022-08-26T12:10:56.758Z,26.37
2022-08-26T12:12:08.608Z,26.38
2022-08-26T12:13:13.744Z,26.4
2022-08-26T12:14:27.962Z,26.37
2022-08-26T12:15:30.787Z,26.38
2022-08-26T12:16:42.811Z,26.38
2022-08-26T12:17:55.779Z,26.38
2022-08-26T12:19:07.675Z,26.38
2022-08-26T12:20:11.281Z,26.41
2022-08-26T12:21:25.166Z,26.38
2022-08-26T12:22:37.786Z,26.38
2022-08-26T12:23:39.858Z,26.41
2022-08-26T12:24:53.259Z,26.41
2022-08-26T12:26:05.148Z,26.41
2022-08-26T12:27:07.773Z,26.41
2022-08-26T12:28:19.665Z,26.41
2022-08-26T12:29:35.798Z,26.38
2022-08-26T12:30:47.586Z,26.41
2022-08-26T12:31:50.319Z,26.41
2022-08-26T12:33:02.251Z,26.38
2022-08-26T12:34:06.283Z,26.42
2022-08-26T12:35:19.543Z,26.4
2022-08-26T12:36:32.327Z,26.41
2022-08-26T12:37:34.350Z,26.42
2022-08-26T12:38:48.294Z,26.42
2022-08-26T12:40:00.271Z,26.46
2022-08-26T12:41:13.282Z,26.42
2022-08-26T12:42:15.333Z,26.52
2022-08-26T12:43:27.782Z,26.48
2022-08-26T12:44:39.654Z,26.45
2022-08-26T12:45:52.322Z,26.44
2022-08-26T12:46:54.471Z,26.45
2022-08-26T12:48:07.348Z,26.41
2022-08-26T12:49:19.347Z,26.44
2022-08-26T12:50:31.803Z,26.44
2022-08-26T12:51:33.659Z,26.46
2022-08-26T12:52:46.275Z,26.44
2022-08-26T12:53:58.142Z,26.46
2022-08-26T12:55:10.780Z,26.45
2022-08-26T12:56:32.497Z,26.45
2022-08-26T12:57:25.282Z,26.46
2022-08-26T12:58:37.090Z,26.48
2022-08-26T12:59:49.804Z,26.48
2022-08-26T13:00:51.977Z,26.52
2022-08-26T13:02:04.947Z,26.48
2022-08-26T13:03:16.857Z,26.49
2022-08-26T13:04:19.798Z,26.51
2022-08-26T13:05:31.653Z,26.49
2022-08-26T13:06:44.296Z,26.51
2022-08-26T13:07:56.176Z,26.49
2022-08-26T13:08:58.781Z,26.51
2022-08-26T13:10:10.636Z,26.49
2022-08-26T13:11:23.273Z,26.49
2022-08-26T13:12:35.115Z,26.51
2022-08-26T13:13:37.792Z,26.49
2022-08-26T13:14:50.654Z,26.52
2022-08-26T13:16:03.366Z,26.54
2022-08-26T13:17:05.434Z,26.54
2022-08-26T13:18:18.281Z,26.55
2022-08-26T13:19:30.157Z,26.57
2022-08-26T13:20:42.821Z,26.54
2022-08-26T13:21:44.853Z,26.54
2022-08-26T13:23:09.069Z,26.54
2022-08-26T13:24:11.278Z,26.54
2022-08-26T13:25:14.318Z,26.55
2022-08-26T13:26:45.793Z,26.54
2022-08-26T13:27:38.005Z,26.55
2022-08-26T13:29:01.988Z,26.54
2022-08-26T13:29:54.634Z,26.58
2022-08-26T13:31:07.367Z,26.55
2022-08-26T13:32:19.228Z,26.58
2022-08-26T13:33:23.313Z,26.58
2022-08-26T13:34:35.099Z,26.6
2022-08-26T13:35:47.837Z,26.57
2022-08-26T13:36:59.628Z,26.6
2022-08-26T13:38:02.325Z,26.58
2022-08-26T13:39:14.206Z,26.58
2022-08-26T13:40:29.266Z,26.6
2022-08-26T13:41:33.427Z,26.6
2022-08-26T13:42:49.828Z,26.58
2022-08-26T13:43:52.157Z,26.57
2022-08-26T13:45:04.856Z,26.55
2022-08-26T13:46:16.689Z,26.55
2022-08-26T13:47:40.339Z,26.55
2022-08-26T13:48:32.564Z,26.55
2022-08-26T13:49:45.398Z,26.55
2022-08-26T13:50:47.450Z,26.54
2022-08-26T13:51:59.842Z,26.54
2022-08-26T13:53:11.718Z,26.55
2022-08-26T13:54:24.334Z,26.55
2022-08-26T13:55:26.316Z,26.57
2022-08-26T13:56:38.800Z,26.54
2022-08-26T13:57:50.658Z,26.54
2022-08-26T13:59:03.334Z,26.54
2022-08-26T14:00:05.728Z,26.54
2022-08-26T14:01:23.810Z,26.57
2022-08-26T14:02:25.868Z,26.55
2022-08-26T14:03:38.362Z,26.55
2022-08-26T14:04:50.423Z,26.54
2022-08-26T14:05:53.328Z,26.52
2022-08-26T14:07:05.207Z,26.54
2022-08-26T14:08:17.824Z,26.52
2022-08-26T14:09:29.692Z,26.51
2022-08-26T14:10:32.320Z,26.51
2022-08-26T14:11:53.908Z,26.51
2022-08-26T14:12:57.816Z,26.48
2022-08-26T14:14:09.699Z,26.49
2022-08-26T14:15:12.818Z,26.49
2022-08-26T14:16:24.864Z,26.49
2022-08-26T14:17:37.849Z,26.48
2022-08-26T14:18:42.221Z,26.49
2022-08-26T14:19:56.350Z,26.49
2022-08-26T14:21:08.193Z,26.51
2022-08-26T14:22:10.861Z,26.48
2022-08-26T14:23:22.956Z,26.44
2022-08-26T14:24:35.875Z,26.46
2022-08-26T14:25:37.951Z,26.45
2022-08-26T14:26:50.816Z,26.44
2022-08-26T14:28:02.693Z,26.46
2022-08-26T14:29:16.751Z,26.44
2022-08-26T14:30:19.084Z,26.45
2022-08-26T14:31:31.895Z,26.45
2022-08-26T14:32:43.955Z,26.45
2022-08-26T14:33:47.357Z,26.45
2022-08-26T14:34:59.224Z,26.44
2022-08-26T14:36:11.820Z,26.42
2022-08-26T14:37:15.389Z,26.44
2022-08-26T14:38:28.351Z,26.42
2022-08-26T14:39:40.243Z,26.41
2022-08-26T14:40:52.868Z,26.38
2022-08-26T14:41:55.134Z,26.41
2022-08-26T14:43:07.858Z,26.4
2022-08-26T14:44:19.755Z,26.42
2022-08-26T14:45:32.409Z,26.4
2022-08-26T14:46:34.635Z,26.41
2022-08-26T14:47:47.331Z,26.38
2022-08-26T14:49:01.721Z,26.42
2022-08-26T14:50:04.861Z,26.4
2022-08-26T14:51:16.734Z,26.38
2022-08-26T14:52:29.417Z,26.38
2022-08-26T14:53:31.445Z,26.4
2022-08-26T14:54:44.381Z,26.38
2022-08-26T14:55:56.266Z,26.38
2022-08-26T14:57:08.867Z,26.38
2022-08-26T14:58:10.975Z,26.37
2022-08-26T14:59:23.878Z,26.4
2022-08-26T15:00:35.758Z,26.37
2022-08-26T15:01:39.012Z,26.37
2022-08-26T15:02:51.124Z,26.38
2022-08-26T15:04:03.829Z,26.35
2022-08-26T15:05:15.713Z,26.37
2022-08-26T15:06:18.366Z,26.38
2022-08-26T15:07:30.250Z,26.35
2022-08-26T15:08:42.871Z,26.37
2022-08-26T15:09:54.733Z,26.37
2022-08-26T15:10:57.355Z,26.37
2022-08-26T15:12:09.204Z,26.37
2022-08-26T15:13:21.851Z,26.35
2022-08-26T15:14:33.683Z,26.38
2022-08-26T15:15:36.359Z,26.38
2022-08-26T15:16:48.326Z,26.37
2022-08-26T15:18:00.832Z,26.37
2022-08-26T15:19:02.968Z,26.38
2022-08-26T15:20:15.978Z,26.34
2022-08-26T15:21:28.893Z,26.37
2022-08-26T15:22:41.359Z,26.35
2022-08-26T15:23:47.739Z,26.35
2022-08-26T15:25:00.853Z,26.34
2022-08-26T15:26:02.916Z,26.34
2022-08-26T15:27:15.371Z,26.34
2022-08-26T15:28:27.251Z,26.37
2022-08-26T15:29:39.862Z,26.34
2022-08-26T15:30:41.886Z,26.34
2022-08-26T15:31:55.973Z,26.33
2022-08-26T15:32:59.864Z,26.35
2022-08-26T15:34:16.047Z,26.33
2022-08-26T15:35:19.088Z,26.33
2022-08-26T15:36:31.870Z,26.34
2022-08-26T15:37:43.798Z,26.31
2022-08-26T15:38:56.369Z,26.34
2022-08-26T15:39:58.411Z,26.3
2022-08-26T15:41:11.365Z,26.3
2022-08-26T15:42:23.213Z,26.27
2022-08-26T15:43:29.135Z,26.3
2022-08-26T15:44:41.371Z,26.28
2022-08-26T15:45:53.864Z,26.31
2022-08-26T15:46:58.690Z,26.28
2022-08-26T15:48:13.431Z,26.31
2022-08-26T15:49:19.850Z,26.3
2022-08-26T15:50:32.355Z,26.3
2022-08-26T15:51:34.367Z,26.31
2022-08-26T15:52:47.379Z,26.3
2022-08-26T15:53:59.156Z,26.27
2022-08-26T15:55:11.884Z,26.31
2022-08-26T15:57:40.834Z,26.3
2022-08-26T15:58:36.244Z,26.27
2022-08-26T15:59:48.894Z,26.27
2022-08-26T16:00:56.888Z,26.3
2022-08-26T16:02:09.404Z,26.25
2022-08-26T16:03:11.623Z,26.25
2022-08-26T16:04:24.386Z,26.3
2022-08-26T16:05:36.281Z,26.28
2022-08-26T16:06:39.353Z,26.27
2022-08-26T16:07:51.223Z,26.27
2022-08-26T16:09:04.359Z,26.25
2022-08-26T16:10:16.145Z,26.27
2022-08-26T16:11:18.888Z,26.24
2022-08-26T16:12:30.719Z,26.25
2022-08-26T16:13:43.370Z,26.25
2022-08-26T16:14:45.320Z,26.24
2022-08-26T16:15:57.918Z,26.21
2022-08-26T16:17:09.924Z,26.24
2022-08-26T16:18:23.571Z,26.24
2022-08-26T16:19:25.953Z,26.23
2022-08-26T16:20:38.349Z,26.23
2022-08-26T16:21:50.205Z,26.23
2022-08-26T16:23:02.890Z,26.21
2022-08-26T16:24:04.957Z,26.21
2022-08-26T16:25:17.402Z,26.21
2022-08-26T16:26:30.182Z,26.21
2022-08-26T16:28:02.377Z,26.2
2022-08-26T16:28:43.627Z,26.21
2022-08-26T16:29:55.607Z,26.2
2022-08-26T16:31:08.481Z,26.21
2022-08-26T16:32:20.461Z,26.23
2022-08-26T16:33:29.259Z,26.21
2022-08-26T16:34:31.649Z,26.2
2022-08-26T16:35:44.399Z,26.21
2022-08-26T16:36:56.344Z,26.2
2022-08-26T16:38:09.067Z,26.23
2022-08-26T16:39:11.344Z,26.2
2022-08-26T16:40:23.942Z,26.21
2022-08-26T16:41:35.926Z,26.18
2022-08-26T16:42:48.384Z,26.18
2022-08-26T16:43:50.226Z,26.18
2022-08-26T16:45:02.873Z,26.18
2022-08-26T16:46:14.885Z,26.18
2022-08-26T16:47:17.890Z,26.18
2022-08-26T16:48:29.725Z,26.18
2022-08-26T16:49:42.379Z,26.17
2022-08-26T16:50:54.227Z,26.18
2022-08-26T16:51:56.869Z,26.17
2022-08-26T16:53:15.673Z,26.18
2022-08-26T16:54:18.366Z,26.16
2022-08-26T16:55:30.147Z,26.16
2022-08-26T16:56:42.885Z,26.13
2022-08-26T16:57:44.893Z,26.11
2022-08-26T16:58:58.401Z,26.16
2022-08-26T17:00:10.281Z,26.16
2022-08-26T17:01:23.489Z,26.11
2022-08-26T17:02:25.625Z,26.14
2022-08-26T17:03:39.395Z,26.1
2022-08-26T17:04:51.267Z,26.11
2022-08-26T17:05:53.887Z,26.1
2022-08-26T17:07:05.735Z,26.09
2022-08-26T17:08:21.881Z,26.07
2022-08-26T17:09:20.836Z,26.07
2022-08-26T17:10:33.466Z,26.09
2022-08-26T17:11:45.414Z,26.07
2022-08-26T17:12:57.859Z,26.09
2022-08-26T17:13:59.910Z,26.07
2022-08-26T17:15:12.375Z,26.09
2022-08-26T17:16:26.864Z,26.07
2022-08-26T17:17:29.885Z,26.07
2022-08-26T17:18:41.669Z,26.06
2022-08-26T17:19:54.427Z,26.06
2022-08-26T17:21:06.220Z,26.06
2022-08-26T17:22:08.907Z,26.04
2022-08-26T17:23:20.773Z,26.04
2022-08-26T17:24:33.374Z,26.04
2022-08-26T17:25:45.214Z,26.03
2022-08-26T17:26:48.438Z,26.03
2022-08-26T17:29:08.886Z,26.01
2022-08-26T17:30:20.734Z,26.01
2022-08-26T17:31:33.456Z,26.01
2022-08-26T17:32:35.554Z,26.01
2022-08-26T17:33:53.760Z,26.01
2022-08-26T17:34:56.331Z,26.01
2022-08-26T17:36:08.879Z,25.98
2022-08-26T17:37:20.761Z,26.01
2022-08-26T17:38:23.426Z,25.97
2022-08-26T17:39:35.284Z,25.97
2022-08-26T17:40:47.894Z,26.0
2022-08-26T17:41:59.763Z,25.95
2022-08-26T17:43:12.916Z,25.97
2022-08-26T17:44:14.931Z,25.97
2022-08-26T17:45:27.394Z,25.95
2022-08-26T17:46:39.295Z,25.97
2022-08-26T17:47:42.391Z,25.98
2022-08-26T17:48:54.242Z,25.95
2022-08-26T17:50:06.897Z,25.97
2022-08-26T17:51:18.757Z,25.97
2022-08-26T17:52:21.397Z,25.97
2022-08-26T17:53:33.271Z,25.97
2022-08-26T17:54:45.931Z,25.97
2022-08-26T17:55:57.794Z,25.97
2022-08-26T17:57:01.437Z,25.95
2022-08-26T17:58:14.801Z,25.95
2022-08-26T17:59:30.455Z,25.94
2022-08-26T18:00:32.785Z,25.95
2022-08-26T18:01:45.453Z,25.95
2022-08-26T18:02:48.924Z,25.94
2022-08-26T18:04:01.457Z,25.93
2022-08-26T18:05:13.536Z,25.91
2022-08-26T18:06:26.447Z,25.93
2022-08-26T18:07:28.438Z,25.91
2022-08-26T18:08:40.892Z,25.94
2022-08-26T18:09:52.798Z,25.91
2022-08-26T18:10:55.399Z,25.89
2022-08-26T18:12:07.262Z,25.89
2022-08-26T18:13:19.898Z,25.87
2022-08-26T18:14:31.770Z,25.84
2022-08-26T18:15:34.426Z,25.86
2022-08-26T18:16:46.363Z,25.84
2022-08-26T18:17:58.946Z,25.86
2022-08-26T18:19:10.961Z,25.86
2022-08-26T18:20:13.941Z,25.86
2022-08-26T18:21:25.836Z,25.87
2022-08-26T18:22:38.402Z,25.84
2022-08-26T18:23:50.282Z,25.83
2022-08-26T18:24:59.241Z,25.84
2022-08-26T18:26:01.499Z,25.86
2022-08-26T18:27:13.927Z,25.83
2022-08-26T18:28:25.798Z,25.86
2022-08-26T18:29:45.543Z,25.83
2022-08-26T18:30:47.818Z,25.83
2022-08-26T18:32:00.430Z,25.83
2022-08-26T18:33:02.571Z,25.83
2022-08-26T18:34:15.478Z,25.83
2022-08-26T18:35:27.438Z,25.84
2022-08-26T18:36:39.895Z,25.8
2022-08-26T18:37:41.899Z,25.82
2022-08-26T18:38:54.437Z,25.77
2022-08-26T18:40:06.337Z,25.74
2022-08-26T18:41:18.950Z,25.66
2022-08-26T18:42:21.093Z,25.55
2022-08-26T18:43:34.930Z,25.43
2022-08-26T18:44:46.926Z,25.31
2022-08-26T18:45:49.957Z,25.19
2022-08-26T18:47:02.107Z,25.07
2022-08-26T18:48:14.914Z,24.94
2022-08-26T18:49:26.936Z,24.84
2022-08-26T18:50:29.943Z,24.72
2022-08-26T18:51:41.837Z,24.64
2022-08-26T18:52:54.434Z,24.56
2022-08-26T18:54:06.493Z,24.51
2022-08-26T18:55:09.958Z,24.43
2022-08-26T18:56:22.108Z,24.36
2022-08-26T18:57:34.944Z,24.3
2022-08-26T18:58:37.240Z,24.23
2022-08-26T18:59:50.437Z,24.2
2022-08-26T19:01:02.634Z,24.14
2022-08-26T19:02:16.115Z,24.13
2022-08-26T19:03:19.217Z,24.07
2022-08-26T19:04:32.473Z,24.06
2022-08-26T19:05:44.677Z,24.03
2022-08-26T19:06:47.916Z,24.02
2022-08-26T19:08:00.061Z,23.96
2022-08-26T19:09:14.694Z,23.93
2022-08-26T19:10:20.366Z,23.9
2022-08-26T19:11:37.589Z,23.9
2022-08-26T19:12:35.655Z,23.88
2022-08-26T19:13:48.449Z,23.85
2022-08-26T19:15:02.924Z,23.85
2022-08-26T19:16:05.942Z,23.85
2022-08-26T19:17:18.127Z,23.83
2022-08-26T19:18:25.443Z,23.81
2022-08-26T19:19:37.632Z,23.79
2022-08-26T19:20:50.482Z,23.81
2022-08-26T19:22:02.497Z,23.78
2022-08-26T19:23:10.582Z,23.76
2022-08-26T19:24:27.435Z,23.76
2022-08-26T19:25:31.475Z,23.75
2022-08-26T19:26:43.660Z,23.78
2022-08-26T19:27:46.963Z,23.75
2022-08-26T19:28:59.179Z,23.74
2022-08-26T19:30:11.927Z,23.74
2022-08-26T19:31:14.369Z,23.75
2022-08-26T19:32:27.433Z,23.72
2022-08-26T19:33:39.656Z,23.71
2022-08-26T19:34:52.476Z,23.71
2022-08-26T19:35:54.820Z,23.68
2022-08-26T19:37:07.922Z,23.68
2022-08-26T19:38:20.071Z,23.69
2022-08-26T19:39:32.931Z,23.65
2022-08-26T19:40:35.292Z,23.66
2022-08-26T19:41:48.455Z,23.62
2022-08-26T19:43:00.661Z,23.62
2022-08-26T19:44:13.457Z,23.64
2022-08-26T19:45:24.494Z,23.58
2022-08-26T19:46:28.486Z,23.61
2022-08-26T19:47:40.956Z,23.58
2022-08-26T19:48:45.456Z,23.56
2022-08-26T19:49:57.762Z,23.59
2022-08-26T19:51:10.938Z,23.58
2022-08-26T19:52:13.422Z,23.58
2022-08-26T19:53:26.427Z,23.59
2022-08-26T19:54:38.664Z,23.58
2022-08-26T19:55:51.451Z,23.58
2022-08-26T19:56:53.816Z,23.59
2022-08-26T19:58:07.004Z,23.56
2022-08-26T19:59:19.320Z,23.54
2022-08-26T20:00:32.481Z,23.55
2022-08-26T20:01:34.896Z,23.54
2022-08-26T20:02:48.016Z,23.55
2022-08-26T20:04:00.297Z,23.55
2022-08-26T20:05:03.489Z,23.54
2022-08-26T20:06:15.707Z,23.54
2022-08-26T20:07:28.486Z,23.55